createdAt,value
2022-10-30T00:01:34.259Z,12.92
2022-10-30T00:04:00.652Z,12.94
2022-10-30T00:06:27.049Z,12.86
2022-10-30T00:08:53.577Z,12.92
2022-10-30T00:11:20.004Z,12.94
2022-10-30T00:13:46.393Z,12.93
2022-10-30T00:16:12.788Z,12.93
2022-10-30T00:18:39.826Z,12.75
2022-10-30T00:21:12.025Z,12.77
2022-10-30T00:23:39.284Z,12.77
2022-10-30T00:26:06.963Z,12.86
2022-10-30T00:28:33.687Z,12.79
2022-10-30T00:31:01.485Z,12.87
2022-10-30T00:33:29.126Z,12.78
2022-10-30T00:35:55.598Z,12.76
2022-10-30T00:38:22.186Z,12.62
2022-10-30T00:40:49.365Z,12.71
2022-10-30T00:43:28.474Z,12.69
2022-10-30T00:45:56.467Z,12.66
2022-10-30T00:48:25.386Z,12.66
2022-10-30T00:50:53.375Z,12.67
2022-10-30T00:53:21.629Z,12.64
2022-10-30T00:55:53.972Z,12.65
2022-10-30T00:58:33.794Z,12.66
2022-10-30T01:01:04.189Z,12.68
2022-10-30T01:03:32.012Z,12.63
2022-10-30T01:06:02.838Z,12.59
2022-10-30T01:08:29.862Z,12.64
2022-10-30T01:10:59.682Z,12.63
2022-10-30T01:13:27.981Z,12.66
2022-10-30T01:16:21.799Z,12.69
2022-10-30T01:19:26.523Z,12.62
2022-10-30T01:22:11.095Z,12.57
2022-10-30T01:25:04.343Z,12.58
2022-10-30T01:27:58.544Z,12.53
2022-10-30T01:30:49.818Z,12.48
2022-10-30T01:33:45.085Z,12.45
2022-10-30T01:37:04.303Z,12.46
2022-10-30T01:39:37.147Z,12.44
2022-10-30T01:42:41.237Z,12.44
2022-10-30T01:45:08.208Z,12.41
2022-10-30T01:47:53.024Z,12.42
2022-10-30T01:50:37.481Z,12.44
2022-10-30T01:53:14.618Z,12.33
2022-10-30T01:55:47.237Z,12.31
2022-10-30T01:58:27.034Z,12.38
2022-10-30T02:00:58.821Z,12.34
2022-10-30T02:03:26.524Z,12.41
2022-10-30T02:05:54.006Z,12.49
2022-10-30T02:08:22.972Z,12.48
2022-10-30T02:10:52.811Z,12.33
2022-10-30T02:13:31.391Z,12.39
2022-10-30T02:15:59.094Z,12.47
2022-10-30T02:18:25.662Z,12.36
2022-10-30T02:20:53.108Z,12.36
2022-10-30T02:23:22.249Z,12.29
2022-10-30T02:25:49.936Z,12.37
2022-10-30T02:28:16.418Z,12.40
2022-10-30T02:30:45.768Z,12.45
2022-10-30T02:33:12.272Z,12.42
2022-10-30T02:35:38.765Z,12.30
2022-10-30T02:38:05.232Z,12.34
2022-10-30T02:40:31.864Z,12.34
2022-10-30T02:42:58.267Z,12.41
2022-10-30T02:45:24.823Z,12.39
2022-10-30T02:47:51.330Z,12.39
2022-10-30T02:50:18.273Z,12.37
2022-10-30T02:52:44.741Z,12.42
2022-10-30T02:55:11.931Z,12.27
2022-10-30T02:57:39.002Z,12.38
2022-10-30T03:00:06.617Z,12.43
2022-10-30T03:02:33.398Z,12.43
2022-10-30T03:05:00.222Z,12.32
2022-10-30T03:07:26.713Z,12.30
2022-10-30T03:09:54.390Z,12.29
2022-10-30T03:12:21.966Z,12.27
2022-10-30T03:14:48.643Z,12.10
2022-10-30T03:17:15.060Z,12.18
2022-10-30T03:19:41.731Z,12.25
2022-10-30T03:22:08.844Z,12.25
2022-10-30T03:24:38.169Z,12.19
2022-10-30T03:27:05.268Z,12.22
2022-10-30T03:29:31.640Z,12.20
2022-10-30T03:31:58.078Z,12.20
2022-10-30T03:34:29.435Z,12.16
2022-10-30T03:36:57.666Z,12.10
2022-10-30T03:39:24.166Z,12.11
2022-10-30T03:41:50.715Z,12.11
2022-10-30T03:44:17.400Z,12.03
2022-10-30T03:46:43.809Z,12.07
2022-10-30T03:49:21.503Z,12.00
2022-10-30T03:51:48.003Z,12.03
2022-10-30T03:54:14.422Z,12.07
2022-10-30T03:56:40.865Z,11.99
2022-10-30T03:59:12.575Z,11.87
2022-10-30T04:01:40.787Z,11.89
2022-10-30T04:04:07.318Z,11.91
2022-10-30T04:06:33.821Z,11.78
2022-10-30T04:09:01.247Z,11.84
2022-10-30T04:11:33.914Z,11.91
2022-10-30T04:14:00.345Z,11.88
2022-10-30T04:16:26.804Z,11.83
2022-10-30T04:18:53.507Z,11.83
2022-10-30T04:21:19.983Z,11.86
2022-10-30T04:23:49.035Z,11.78
2022-10-30T04:26:16.572Z,11.84
2022-10-30T04:28:47.202Z,11.81
2022-10-30T04:31:13.613Z,11.70
2022-10-30T04:33:40.278Z,11.52
2022-10-30T04:36:07.284Z,11.65
2022-10-30T04:38:33.711Z,11.62
2022-10-30T04:41:01.174Z,11.64
2022-10-30T04:43:42.365Z,11.47
2022-10-30T04:46:08.812Z,11.50
2022-10-30T04:48:37.107Z,11.42
2022-10-30T04:51:04.539Z,11.41
2022-10-30T04:53:31.026Z,11.55
2022-10-30T04:56:06.079Z,11.48
2022-10-30T04:58:32.505Z,11.50
2022-10-30T05:01:05.140Z,11.55
2022-10-30T05:03:33.468Z,11.42
2022-10-30T05:06:15.851Z,11.56
2022-10-30T05:08:42.264Z,11.50
2022-10-30T05:11:19.118Z,11.53
2022-10-30T05:13:46.537Z,11.51
2022-10-30T05:16:13.046Z,11.46
2022-10-30T05:18:39.499Z,11.50
2022-10-30T05:21:06.079Z,11.55
2022-10-30T05:23:32.574Z,11.38
2022-10-30T05:26:00.968Z,11.49
2022-10-30T05:28:27.766Z,11.52
2022-10-30T05:30:56.951Z,11.38
2022-10-30T05:33:41.596Z,11.47
2022-10-30T05:36:08.596Z,11.46
2022-10-30T05:38:35.164Z,11.40
2022-10-30T05:41:02.402Z,11.39
2022-10-30T05:43:28.882Z,11.53
2022-10-30T05:45:55.523Z,11.48
2022-10-30T05:48:22.052Z,11.42
2022-10-30T05:50:48.602Z,11.55
2022-10-30T05:53:24.762Z,11.44
2022-10-30T05:55:57.154Z,11.35
2022-10-30T05:58:24.933Z,11.26
2022-10-30T06:00:54.001Z,11.40
2022-10-30T06:03:33.826Z,11.39
2022-10-30T06:06:00.904Z,11.50
2022-10-30T06:08:27.405Z,11.44
2022-10-30T06:10:57.715Z,11.35
2022-10-30T06:13:34.378Z,11.39
2022-10-30T06:16:06.469Z,11.39
2022-10-30T06:18:56.168Z,11.30
2022-10-30T06:21:24.710Z,11.34
2022-10-30T06:24:04.706Z,11.48
2022-10-30T06:26:42.780Z,11.45
2022-10-30T06:29:13.021Z,11.41
2022-10-30T06:31:40.463Z,11.41
2022-10-30T06:34:06.864Z,11.38
2022-10-30T06:36:34.989Z,11.31
2022-10-30T06:39:01.613Z,11.22
2022-10-30T06:41:36.330Z,11.22
2022-10-30T06:44:26.067Z,11.18
2022-10-30T06:46:54.189Z,11.28
2022-10-30T06:49:20.709Z,11.18
2022-10-30T06:51:49.094Z,11.25
2022-10-30T06:54:15.635Z,11.26
2022-10-30T06:57:02.085Z,11.14
2022-10-30T06:59:41.205Z,11.15
2022-10-30T07:02:21.952Z,11.11
2022-10-30T07:04:52.893Z,11.06
2022-10-30T07:07:19.393Z,11.22
2022-10-30T07:09:48.733Z,11.12
2022-10-30T07:12:22.711Z,10.99
2022-10-30T07:15:10.728Z,11.00
2022-10-30T07:18:09.134Z,11.14
2022-10-30T07:20:36.940Z,11.24
2022-10-30T07:23:05.218Z,11.21
2022-10-30T07:25:32.189Z,11.27
2022-10-30T07:28:15.666Z,11.29
2022-10-30T07:30:48.648Z,11.21
2022-10-30T07:33:35.016Z,11.10
2022-10-30T07:36:14.964Z,11.24
2022-10-30T07:38:48.382Z,11.21
2022-10-30T07:41:27.216Z,11.13
2022-10-30T07:44:31.678Z,11.16
2022-10-30T07:47:12.834Z,11.22
2022-10-30T07:49:54.909Z,11.01
2022-10-30T07:52:21.293Z,10.74
2022-10-30T07:54:48.969Z,10.80
2022-10-30T07:57:44.693Z,11.08
2022-10-30T08:00:29.681Z,11.04
2022-10-30T08:03:06.237Z,11.05
2022-10-30T08:05:45.084Z,11.07
2022-10-30T08:08:14.113Z,11.14
2022-10-30T08:10:40.702Z,11.24
2022-10-30T08:13:07.656Z,11.12
2022-10-30T08:15:34.207Z,11.09
2022-10-30T08:18:01.722Z,11.21
2022-10-30T08:20:28.350Z,11.26
2022-10-30T08:22:57.727Z,11.20
2022-10-30T08:25:30.067Z,11.30
2022-10-30T08:28:03.317Z,11.31
2022-10-30T08:30:36.394Z,11.31
2022-10-30T08:33:06.265Z,11.36
2022-10-30T08:35:53.628Z,11.37
2022-10-30T08:38:20.166Z,11.35
2022-10-30T08:40:55.613Z,11.15
2022-10-30T08:43:25.160Z,11.19
2022-10-30T08:45:52.153Z,11.31
2022-10-30T08:48:21.028Z,11.21
2022-10-30T08:50:47.454Z,11.29
2022-10-30T08:53:20.410Z,11.43
2022-10-30T08:55:48.031Z,11.59
2022-10-30T08:58:31.189Z,11.50
2022-10-30T09:01:01.333Z,11.45
2022-10-30T09:03:47.793Z,11.53
2022-10-30T09:06:40.036Z,11.62
2022-10-30T09:09:35.644Z,11.62
2022-10-30T09:12:03.380Z,11.82
2022-10-30T09:14:35.128Z,11.70
2022-10-30T09:17:01.586Z,11.89
2022-10-30T09:19:29.213Z,11.92
2022-10-30T09:21:57.943Z,11.90
2022-10-30T09:24:24.455Z,11.94
2022-10-30T09:26:50.889Z,11.99
2022-10-30T09:29:22.757Z,12.05
2022-10-30T09:31:54.897Z,12.14
2022-10-30T09:34:23.985Z,12.15
2022-10-30T09:36:57.424Z,12.19
2022-10-30T09:39:25.325Z,12.25
2022-10-30T09:42:36.488Z,12.29
2022-10-30T09:45:37.733Z,12.34
2022-10-30T09:48:16.202Z,12.39
2022-10-30T09:51:21.263Z,12.45
2022-10-30T09:54:06.040Z,12.48
2022-10-30T09:56:45.173Z,12.51
2022-10-30T09:59:34.068Z,12.50
2022-10-30T10:02:20.238Z,12.63
2022-10-30T10:04:52.485Z,12.68
2022-10-30T10:08:07.867Z,12.84
2022-10-30T10:11:00.000Z,12.99
2022-10-30T10:13:41.142Z,13.03
2022-10-30T10:16:20.216Z,13.11
2022-10-30T10:19:21.062Z,13.22
2022-10-30T10:21:58.676Z,13.25
2022-10-30T10:24:28.782Z,13.28
2022-10-30T10:27:16.567Z,13.43
2022-10-30T10:30:14.672Z,13.54
2022-10-30T10:33:09.937Z,13.76
2022-10-30T10:35:44.307Z,13.97
2022-10-30T10:38:25.910Z,14.13
2022-10-30T10:41:14.284Z,14.36
2022-10-30T10:43:58.773Z,14.55
2022-10-30T10:47:01.768Z,14.79
2022-10-30T10:49:47.331Z,15.03
2022-10-30T10:52:17.276Z,15.19
2022-10-30T10:54:47.664Z,15.27
2022-10-30T10:57:35.786Z,15.40
2022-10-30T11:00:13.242Z,15.43
2022-10-30T11:02:59.503Z,15.62
2022-10-30T11:05:33.534Z,15.78
2022-10-30T11:08:11.230Z,15.97
2022-10-30T11:10:37.803Z,16.17
2022-10-30T11:13:04.217Z,16.30
2022-10-30T11:15:51.549Z,16.37
2022-10-30T11:18:17.943Z,16.47
2022-10-30T11:21:09.621Z,16.57
2022-10-30T11:23:47.492Z,16.54
2022-10-30T11:26:23.018Z,16.64
2022-10-30T11:28:58.327Z,16.79
2022-10-30T11:31:24.763Z,16.85
2022-10-30T11:33:51.920Z,16.89
2022-10-30T11:36:23.358Z,16.98
2022-10-30T11:38:50.301Z,17.04
2022-10-30T11:41:18.158Z,17.08
2022-10-30T11:43:45.258Z,17.16
2022-10-30T11:46:21.056Z,17.25
2022-10-30T11:48:54.491Z,17.21
2022-10-30T11:51:35.100Z,17.31
2022-10-30T11:54:02.344Z,17.25
2022-10-30T11:56:35.396Z,17.38
2022-10-30T11:59:04.588Z,17.49
2022-10-30T12:01:36.022Z,17.44
2022-10-30T12:04:29.453Z,17.44
2022-10-30T12:07:14.426Z,17.46
2022-10-30T12:09:46.264Z,17.49
2022-10-30T12:12:42.206Z,17.43
2022-10-30T12:15:08.572Z,17.33
2022-10-30T12:17:35.189Z,17.17
2022-10-30T12:20:03.045Z,17.08
2022-10-30T12:22:32.736Z,16.92
2022-10-30T12:25:03.740Z,16.80
2022-10-30T12:27:34.360Z,16.72
2022-10-30T12:30:14.699Z,16.64
2022-10-30T12:32:50.312Z,16.54
2022-10-30T12:35:25.725Z,16.48
2022-10-30T12:37:54.231Z,16.42
2022-10-30T12:40:30.025Z,16.33
2022-10-30T12:43:19.468Z,16.31
2022-10-30T12:45:50.945Z,16.36
2022-10-30T12:48:41.213Z,16.38
2022-10-30T12:51:15.927Z,16.34
2022-10-30T12:53:58.394Z,16.34
2022-10-30T12:56:36.148Z,16.31
2022-10-30T12:59:17.650Z,16.34
2022-10-30T13:02:35.800Z,16.35
2022-10-30T13:05:07.079Z,16.33
2022-10-30T13:07:47.436Z,16.31
2022-10-30T13:10:32.062Z,16.35
2022-10-30T13:13:11.172Z,16.31
2022-10-30T13:15:44.545Z,16.32
2022-10-30T13:18:17.402Z,16.33
2022-10-30T13:20:55.877Z,16.26
2022-10-30T13:23:32.669Z,16.29
2022-10-30T13:26:02.272Z,16.33
2022-10-30T13:28:36.899Z,16.32
2022-10-30T13:31:30.593Z,16.35
2022-10-30T13:34:20.785Z,16.35
2022-10-30T13:36:55.499Z,16.36
2022-10-30T13:39:33.898Z,16.38
2022-10-30T13:42:20.560Z,16.38
2022-10-30T13:45:08.351Z,16.38
2022-10-30T13:47:52.867Z,16.37
2022-10-30T13:50:40.205Z,16.37
2022-10-30T13:53:15.333Z,16.35
2022-10-30T13:55:44.673Z,16.32
2022-10-30T13:58:17.255Z,16.35
2022-10-30T14:00:55.930Z,16.35
2022-10-30T14:03:50.420Z,16.35
2022-10-30T14:06:35.154Z,16.34
2022-10-30T14:09:28.595Z,16.33
2022-10-30T14:11:55.365Z,16.26
2022-10-30T14:14:33.001Z,16.31
2022-10-30T14:17:14.624Z,16.28
2022-10-30T14:20:21.706Z,16.30
2022-10-30T14:23:07.958Z,16.26
2022-10-30T14:25:34.808Z,16.20
2022-10-30T14:28:01.963Z,16.19
2022-10-30T14:30:29.210Z,16.19
2022-10-30T14:32:56.236Z,16.21
2022-10-30T14:35:32.915Z,16.21
2022-10-30T14:38:22.621Z,16.20
2022-10-30T14:41:08.414Z,16.16
2022-10-30T14:44:03.218Z,16.17
2022-10-30T14:46:45.410Z,16.12
2022-10-30T14:49:48.697Z,16.12
2022-10-30T14:52:39.985Z,16.11
2022-10-30T14:55:23.385Z,16.07
2022-10-30T14:58:02.117Z,16.06
2022-10-30T15:00:37.604Z,16.02
2022-10-30T15:03:10.101Z,16.01
2022-10-30T15:05:39.665Z,16.02
2022-10-30T15:08:24.644Z,15.94
2022-10-30T15:11:07.836Z,16.00
2022-10-30T15:13:34.411Z,15.96
2022-10-30T15:16:07.977Z,15.92
2022-10-30T15:18:34.672Z,15.94
2022-10-30T15:21:06.564Z,15.90
2022-10-30T15:23:36.481Z,15.88
2022-10-30T15:26:09.860Z,15.87
2022-10-30T15:28:38.658Z,15.85
2022-10-30T15:31:05.286Z,15.86
2022-10-30T15:33:35.369Z,15.80
2022-10-30T15:36:01.916Z,15.74
2022-10-30T15:38:28.394Z,15.71
2022-10-30T15:41:01.028Z,15.67
2022-10-30T15:43:36.956Z,15.62
2022-10-30T15:46:10.048Z,15.59
2022-10-30T15:48:40.810Z,15.58
2022-10-30T15:51:15.234Z,15.50
2022-10-30T15:53:47.774Z,15.47
2022-10-30T15:56:33.654Z,15.41
2022-10-30T15:59:03.195Z,15.40
2022-10-30T16:01:38.412Z,15.35
2022-10-30T16:04:14.742Z,15.31
2022-10-30T16:06:49.064Z,15.21
2022-10-30T16:09:15.541Z,15.15
2022-10-30T16:11:42.282Z,15.10
2022-10-30T16:14:14.485Z,15.13
2022-10-30T16:16:41.368Z,15.00
2022-10-30T16:19:07.964Z,14.84
2022-10-30T16:21:35.112Z,14.92
2022-10-30T16:24:04.234Z,14.89
2022-10-30T16:26:36.759Z,14.87
2022-10-30T16:29:18.360Z,14.85
2022-10-30T16:31:49.727Z,14.79
2022-10-30T16:34:22.784Z,14.71
2022-10-30T16:36:50.280Z,14.67
2022-10-30T16:39:18.666Z,14.64
2022-10-30T16:41:45.271Z,14.63
2022-10-30T16:44:25.328Z,14.55
2022-10-30T16:46:54.984Z,14.55
2022-10-30T16:49:25.227Z,14.47
2022-10-30T16:51:57.929Z,14.41
2022-10-30T16:54:31.506Z,14.39
2022-10-30T16:57:01.728Z,14.41
2022-10-30T16:59:44.344Z,14.44
2022-10-30T17:02:20.634Z,14.41
2022-10-30T17:04:55.400Z,14.32
2022-10-30T17:07:26.374Z,14.32
2022-10-30T17:09:56.730Z,14.31
2022-10-30T17:12:25.454Z,14.31
2022-10-30T17:14:54.781Z,14.25
2022-10-30T17:17:25.198Z,14.26
2022-10-30T17:20:01.411Z,14.16
2022-10-30T17:22:28.853Z,14.14
2022-10-30T17:24:55.409Z,14.13
2022-10-30T17:27:40.920Z,14.07
2022-10-30T17:30:35.206Z,14.00
2022-10-30T17:33:04.213Z,14.02
2022-10-30T17:35:30.788Z,13.96
2022-10-30T17:37:59.819Z,14.01
2022-10-30T17:40:29.418Z,13.82
2022-10-30T17:42:55.812Z,13.82
2022-10-30T17:45:22.390Z,13.68
2022-10-30T17:47:48.795Z,13.74
2022-10-30T17:50:15.235Z,13.85
2022-10-30T17:52:41.649Z,13.81
2022-10-30T17:55:23.160Z,13.72
2022-10-30T17:57:49.620Z,13.55
2022-10-30T18:00:16.847Z,13.67
2022-10-30T18:02:43.291Z,13.69
2022-10-30T18:05:16.423Z,13.70
2022-10-30T18:07:43.342Z,13.67
2022-10-30T18:10:10.098Z,13.58
2022-10-30T18:12:36.542Z,13.58
2022-10-30T18:15:25.975Z,13.46
2022-10-30T18:17:52.405Z,13.44
2022-10-30T18:20:18.869Z,13.48
2022-10-30T18:22:45.322Z,13.52
2022-10-30T18:25:20.058Z,13.42
2022-10-30T18:27:46.602Z,13.30
2022-10-30T18:30:14.826Z,13.41
2022-10-30T18:32:42.969Z,13.33
2022-10-30T18:35:33.188Z,13.41
2022-10-30T18:37:59.791Z,13.34
2022-10-30T18:40:26.215Z,13.22
2022-10-30T18:42:52.575Z,13.16
2022-10-30T18:45:24.986Z,13.19
2022-10-30T18:47:52.646Z,12.93
2022-10-30T18:50:21.593Z,13.03
2022-10-30T18:52:48.686Z,13.17
2022-10-30T18:55:21.606Z,13.17
2022-10-30T18:57:49.594Z,13.21
2022-10-30T19:00:25.056Z,13.22
2022-10-30T19:02:52.695Z,13.23
2022-10-30T19:05:27.747Z,13.21
2022-10-30T19:07:54.758Z,13.13
2022-10-30T19:10:21.589Z,13.06
2022-10-30T19:13:11.041Z,12.92
2022-10-30T19:15:37.405Z,12.93
2022-10-30T19:18:05.218Z,12.93
2022-10-30T19:20:50.901Z,13.00
2022-10-30T19:23:21.765Z,12.99
2022-10-30T19:25:49.471Z,12.95
2022-10-30T19:28:18.336Z,12.82
2022-10-30T19:30:50.109Z,12.85
2022-10-30T19:33:18.136Z,12.88
2022-10-30T19:35:44.601Z,12.91
2022-10-30T19:38:12.338Z,12.90
2022-10-30T19:40:40.173Z,12.89
2022-10-30T19:43:07.063Z,12.93
2022-10-30T19:45:34.504Z,12.96
2022-10-30T19:48:06.427Z,12.88
2022-10-30T19:50:44.778Z,12.84
2022-10-30T19:53:12.744Z,12.86
2022-10-30T19:55:41.450Z,12.75
2022-10-30T19:58:12.856Z,12.72
2022-10-30T20:00:41.318Z,12.60
2022-10-30T20:03:07.870Z,12.71
2022-10-30T20:05:37.662Z,12.70
2022-10-30T20:08:06.095Z,12.58
2022-10-30T20:10:36.079Z,12.54
2022-10-30T20:13:04.088Z,12.57
2022-10-30T20:15:30.684Z,12.55
2022-10-30T20:17:58.383Z,12.53
2022-10-30T20:20:33.993Z,12.66
2022-10-30T20:23:00.528Z,12.65
2022-10-30T20:25:27.817Z,12.63
2022-10-30T20:28:06.620Z,12.64
2022-10-30T20:30:33.607Z,12.64
2022-10-30T20:33:00.385Z,12.55
2022-10-30T20:35:27.123Z,12.56
2022-10-30T20:38:03.458Z,12.62
2022-10-30T20:40:30.749Z,12.44
2022-10-30T20:43:02.660Z,12.43
2022-10-30T20:45:29.824Z,12.45
2022-10-30T20:47:56.364Z,12.42
2022-10-30T20:50:23.419Z,12.44
2022-10-30T20:52:49.879Z,12.47
2022-10-30T20:55:16.445Z,12.44
2022-10-30T20:57:43.084Z,12.43
2022-10-30T21:00:11.787Z,12.09
2022-10-30T21:02:38.429Z,12.30
2022-10-30T21:05:11.778Z,12.26
2022-10-30T21:07:50.096Z,12.15
2022-10-30T21:10:16.530Z,12.18
2022-10-30T21:12:42.982Z,11.96
2022-10-30T21:15:09.677Z,11.90
2022-10-30T21:17:36.164Z,11.90
2022-10-30T21:20:03.076Z,11.98
2022-10-30T21:22:29.478Z,12.06
2022-10-30T21:24:55.891Z,12.14
2022-10-30T21:27:22.666Z,12.14
2022-10-30T21:29:49.082Z,12.02
2022-10-30T21:32:15.566Z,12.18
2022-10-30T21:34:41.951Z,12.27
2022-10-30T21:37:08.370Z,12.08
2022-10-30T21:39:34.740Z,11.98
2022-10-30T21:42:01.123Z,11.99
2022-10-30T21:44:27.478Z,12.05
2022-10-30T21:46:53.918Z,12.05
2022-10-30T21:49:20.426Z,12.12
2022-10-30T21:51:49.542Z,12.12
2022-10-30T21:54:18.111Z,12.13
2022-10-30T21:56:44.894Z,12.09
2022-10-30T21:59:12.331Z,12.09
2022-10-30T22:01:40.975Z,12.01
2022-10-30T22:04:10.814Z,11.85
2022-10-30T22:06:41.998Z,11.74
2022-10-30T22:09:08.342Z,11.72
2022-10-30T22:11:35.131Z,11.79
2022-10-30T22:14:03.756Z,11.78
2022-10-30T22:16:32.041Z,11.66
2022-10-30T22:18:59.196Z,11.78
2022-10-30T22:21:26.208Z,11.71
2022-10-30T22:23:52.671Z,11.64
2022-10-30T22:26:21.601Z,11.62
2022-10-30T22:28:55.399Z,11.74
2022-10-30T22:31:23.322Z,11.87
2022-10-30T22:33:50.430Z,11.82
2022-10-30T22:36:22.511Z,11.86
2022-10-30T22:38:57.729Z,11.71
2022-10-30T22:41:24.545Z,11.81
2022-10-30T22:43:52.467Z,11.79
2022-10-30T22:46:19.387Z,11.76
2022-10-30T22:48:45.988Z,11.62
2022-10-30T22:51:15.468Z,11.65
2022-10-30T22:53:43.535Z,11.76
2022-10-30T22:56:20.421Z,11.75
2022-10-30T22:58:48.459Z,11.77
2022-10-30T23:01:17.865Z,11.65
2022-10-30T23:03:45.319Z,11.64
2022-10-30T23:06:13.017Z,11.75
2022-10-30T23:08:39.797Z,11.71
2022-10-30T23:11:07.257Z,11.74
2022-10-30T23:13:34.832Z,11.58
2022-10-30T23:16:02.866Z,11.62
2022-10-30T23:18:29.849Z,11.48
2022-10-30T23:21:01.993Z,11.48
2022-10-30T23:23:28.432Z,11.52
2022-10-30T23:25:54.854Z,11.46
2022-10-30T23:28:21.253Z,11.50
2022-10-30T23:30:47.705Z,11.48
2022-10-30T23:33:14.082Z,11.23
2022-10-30T23:35:40.466Z,11.37
2022-10-30T23:38:06.873Z,11.38
2022-10-30T23:40:33.243Z,11.29
2022-10-30T23:43:00.139Z,11.33
2022-10-30T23:45:26.758Z,11.31
2022-10-30T23:47:53.195Z,11.38
2022-10-30T23:50:19.595Z,11.31
2022-10-30T23:52:45.986Z,11.29
2022-10-30T23:55:12.362Z,11.24
2022-10-30T23:57:38.738Z,11.04
